Time;durP1;ratioP1;P1;durP2;ratioP2;P2;SDS_P1;SDS_P2;PMS_P1;PMS_P2;Temp;Humidity;BMP_temperature;BMP_pressure;BME280_temperature;BME280_humidity;BME280_pressure;Samples;Min_cycle;Max_cycle;Signal;HPM_P1;HPM_P2
2020/12/13 13:43:06;;;;;;;36.37;21.63;;;8.20;99.90;;;;;;5091331;27;1544776;-61
2020/12/13 13:50:42;;;;;;;34.38;19.38;;;8.60;99.90;;;;;;5097501;28;20102;-57
2020/12/13 13:53:11;;;;;;;34.28;18.48;;;8.70;99.90;;;;;;5097459;28;20048;-60
2020/12/13 13:56:31;;;;;;;34.20;17.80;;;8.70;99.90;;;;;;5077639;28;20016;-60
2020/12/13 13:58:32;;;;;;;31.85;18.08;;;8.70;99.90;;;;;;5085451;28;20112;-60
2020/12/13 14:00:59;;;;;;;32.63;16.90;;;8.80;99.90;;;;;;5094445;28;20028;-60
2020/12/13 14:03:24;;;;;;;34.75;18.02;;;8.70;99.90;;;;;;5080090;28;20024;-58
2020/12/13 14:06:01;;;;;;;31.52;17.70;;;8.80;99.90;;;;;;5095568;28;20107;-58
2020/12/13 14:11:22;;;;;;;31.98;15.52;;;8.70;99.90;;;;;;5081417;28;20028;-61
2020/12/13 14:13:48;;;;;;;34.88;18.00;;;8.80;99.90;;;;;;5078502;28;20024;-60
2020/12/13 14:16:14;;;;;;;32.17;16.20;;;8.60;99.90;;;;;;5097506;28;20079;-60
2020/12/13 14:18:40;;;;;;;30.42;17.38;;;8.60;99.90;;;;;;5103189;28;20518;-61
2020/12/13 14:21:06;;;;;;;28.88;16.50;;;8.60;99.90;;;;;;5106735;28;20073;-59
2020/12/13 14:23:32;;;;;;;33.35;16.90;;;8.50;99.90;;;;;;5106651;28;20070;-58
2020/12/13 14:25:58;;;;;;;33.22;17.90;;;8.50;99.90;;;;;;5106633;28;20028;-59
2020/12/13 14:28:23;;;;;;;30.38;14.68;;;8.60;99.90;;;;;;5087898;28;20035;-59
2020/12/13 14:30:50;;;;;;;32.45;16.52;;;8.50;99.90;;;;;;5106596;28;20101;-59
2020/12/13 14:33:15;;;;;;;30.63;15.43;;;8.50;99.90;;;;;;5107006;28;20042;-57
2020/12/13 14:35:42;;;;;;;27.83;14.13;;;8.50;99.90;;;;;;4749723;28;10000527;-58
2020/12/13 14:38:10;;;;;;;31.75;15.65;;;8.50;99.90;;;;;;5094693;28;20020;-60
2020/12/13 14:40:36;;;;;;;33.00;16.20;;;8.40;99.90;;;;;;5088022;28;20025;-61
2020/12/13 14:43:02;;;;;;;29.10;14.07;;;8.40;99.90;;;;;;5082917;28;20040;-60
2020/12/13 14:45:28;;;;;;;26.92;15.32;;;8.40;99.90;;;;;;5102215;28;20024;-62
2020/12/13 14:47:54;;;;;;;24.92;14.35;;;8.40;99.90;;;;;;5102506;28;20039;-62
2020/12/13 14:50:19;;;;;;;27.45;14.35;;;8.40;99.90;;;;;;5102245;28;20503;-62
2020/12/13 14:52:45;;;;;;;26.50;13.50;;;8.40;99.90;;;;;;5080937;28;20124;-58
2020/12/13 14:55:11;;;;;;;24.05;13.38;;;8.30;99.90;;;;;;5088463;28;20715;-61
2020/12/13 14:57:36;;;;;;;23.58;12.40;;;8.10;99.90;;;;;;5089769;28;20070;-53
2020/12/13 15:00:04;;;;;;;23.77;11.57;;;8.00;99.90;;;;;;5070371;28;20040;-56
2020/12/13 15:02:29;;;;;;;28.02;13.70;;;7.90;99.90;;;;;;5071098;28;20028;-61
2020/12/13 15:04:55;;;;;;;30.23;14.52;;;7.80;99.90;;;;;;5089388;28;20131;-55
2020/12/13 15:07:21;;;;;;;24.58;12.93;;;7.70;99.90;;;;;;5089566;28;20024;-58
2020/12/13 15:09:46;;;;;;;24.75;12.52;;;7.70;99.90;;;;;;5070442;28;20458;-60
2020/12/13 15:12:12;;;;;;;28.52;13.65;;;7.50;99.90;;;;;;5088301;28;20043;-59
2020/12/13 15:17:30;;;;;;;24.90;13.45;;;7.10;99.90;;;;;;5089162;28;20020;-59
2020/12/13 15:19:56;;;;;;;29.65;13.93;;;7.00;99.90;;;;;;5088858;28;20028;-60
2020/12/13 15:22:22;;;;;;;26.40;12.32;;;7.00;99.90;;;;;;5088970;28;20043;-57
2020/12/13 15:24:48;;;;;;;26.13;13.65;;;7.00;99.90;;;;;;5089739;28;20099;-62
2020/12/13 15:27:14;;;;;;;26.58;13.18;;;7.00;99.90;;;;;;5091118;28;20115;-59
2020/12/13 15:29:39;;;;;;;28.10;14.07;;;6.90;99.90;;;;;;5091212;28;20323;-63
2020/12/13 15:32:05;;;;;;;24.13;11.57;;;6.90;99.90;;;;;;5073652;28;20126;-59
2020/12/13 15:34:31;;;;;;;28.52;12.18;;;7.00;99.90;;;;;;5092070;28;20041;-58
2020/12/13 15:36:57;;;;;;;23.23;12.73;;;7.10;99.90;;;;;;5081756;28;20510;-57
2020/12/13 15:39:23;;;;;;;25.42;12.07;;;7.30;99.90;;;;;;5070597;28;20032;-59
2020/12/13 15:41:48;;;;;;;26.23;11.77;;;7.30;99.90;;;;;;5070494;28;20032;-61
2020/12/13 15:44:14;;;;;;;24.15;11.85;;;7.30;99.90;;;;;;5071476;28;20027;-60
2020/12/13 15:46:41;;;;;;;26.75;10.85;;;7.30;99.90;;;;;;5071402;28;20020;-57
2020/12/13 15:49:07;;;;;;;24.60;12.70;;;7.30;99.90;;;;;;5070928;28;20021;-57
2020/12/13 15:51:36;;;;;;;23.58;10.45;;;7.40;99.90;;;;;;5053635;28;20243;-60
2020/12/13 15:54:06;;;;;;;23.85;10.77;;;7.50;99.90;;;;;;5071572;28;20046;-56
2020/12/13 15:56:32;;;;;;;21.25;9.85;;;7.50;99.90;;;;;;5071427;28;20040;-63
2020/12/13 15:58:59;;;;;;;23.48;12.73;;;7.60;99.90;;;;;;5070570;28;20025;-61
2020/12/13 16:01:25;;;;;;;21.38;10.02;;;7.60;99.90;;;;;;5071145;28;20029;-60
2020/12/13 16:03:52;;;;;;;19.83;9.77;;;7.60;99.90;;;;;;5053409;28;20029;-59
2020/12/13 16:06:19;;;;;;;23.85;10.55;;;7.50;99.90;;;;;;5070289;28;20078;-59
2020/12/13 16:08:45;;;;;;;20.88;9.38;;;7.30;99.90;;;;;;5070426;28;20479;-59
2020/12/13 16:11:17;;;;;;;21.35;9.52;;;7.20;99.90;;;;;;5073334;28;20032;-59
2020/12/13 16:13:43;;;;;;;20.70;9.43;;;7.00;99.90;;;;;;5069633;28;20029;-60
2020/12/13 16:16:09;;;;;;;18.73;8.95;;;6.90;99.90;;;;;;5070993;28;20035;-61
2020/12/13 16:18:35;;;;;;;21.23;8.90;;;6.90;99.90;;;;;;5052176;28;20025;-57
2020/12/13 16:21:01;;;;;;;22.58;9.85;;;6.70;99.90;;;;;;5070763;28;20125;-58
2020/12/13 16:23:27;;;;;;;21.33;10.40;;;6.60;99.90;;;;;;5069353;28;20029;-59
2020/12/13 16:25:57;;;;;;;73.75;45.00;;;6.40;99.90;;;;;;5070826;28;20519;-58
2020/12/13 16:28:23;;;;;;;38.45;20.65;;;6.40;99.90;;;;;;5069864;28;20028;-58
2020/12/13 16:30:50;;;;;;;67.32;36.90;;;6.30;99.90;;;;;;5051034;28;20111;-60
2020/12/13 16:33:17;;;;;;;24.67;12.35;;;6.30;99.90;;;;;;5070984;28;20090;-59
2020/12/13 16:35:44;;;;;;;24.83;11.73;;;6.20;99.90;;;;;;5056175;28;20099;-60
2020/12/13 16:38:11;;;;;;;23.02;11.70;;;6.10;99.90;;;;;;5091028;28;20024;-58
2020/12/13 16:40:40;;;;;;;24.33;12.20;;;6.00;99.90;;;;;;5090176;28;20020;-59
2020/12/13 16:45:53;;;;;;;23.17;11.27;;;5.90;99.90;;;;;;5082778;28;20043;-57
2020/12/13 16:55:54;;;;;;;21.15;10.82;;;5.90;99.90;;;;;;5089411;28;20114;-60
2020/12/13 16:58:20;;;;;;;22.80;10.85;;;5.80;99.90;;;;;;4359722;28;10000611;-61
2020/12/13 17:00:46;;;;;;;23.90;11.07;;;5.70;99.90;;;;;;5066991;28;20028;-59
2020/12/13 17:03:11;;;;;;;22.10;10.45;;;5.70;99.90;;;;;;5067484;28;20494;-57
2020/12/13 17:05:37;;;;;;;20.67;9.75;;;5.60;99.90;;;;;;5066484;28;20093;-61
2020/12/13 17:08:03;;;;;;;21.20;10.95;;;5.70;99.90;;;;;;5067158;28;20070;-60
2020/12/13 17:10:29;;;;;;;21.67;10.45;;;5.60;99.90;;;;;;5078609;28;20028;-59
2020/12/13 17:12:54;;;;;;;22.88;11.38;;;5.60;99.90;;;;;;5087591;28;20055;-61
2020/12/13 17:15:22;;;;;;;22.45;10.93;;;5.50;99.90;;;;;;5086967;28;20417;-59
2020/12/13 17:17:50;;;;;;;23.95;12.23;;;5.50;99.90;;;;;;5087587;28;20034;-60
2020/12/13 17:20:16;;;;;;;;;;;5.50;99.90;;;;;;5087610;28;20031;-60
2020/12/13 17:22:41;;;;;;;23.48;11.48;;;5.50;99.90;;;;;;5086878;28;19911;-56
2020/12/13 17:25:07;;;;;;;26.58;10.85;;;5.40;99.90;;;;;;5087005;28;20483;-56
2020/12/13 17:27:33;;;;;;;20.58;10.38;;;5.50;99.90;;;;;;5086724;28;20028;-62
2020/12/13 17:29:58;;;;;;;24.33;10.35;;;5.50;99.90;;;;;;5086119;28;20024;-61
2020/12/13 17:32:24;;;;;;;22.10;11.38;;;5.50;99.90;;;;;;5086613;28;20046;-61
2020/12/13 17:34:50;;;;;;;24.88;11.18;;;5.50;99.90;;;;;;5086114;28;20031;-58
2020/12/13 17:37:16;;;;;;;23.80;11.02;;;5.50;99.90;;;;;;5086592;28;20498;-60
2020/12/13 17:39:44;;;;;;;22.20;11.23;;;5.60;99.90;;;;;;5086314;28;20028;-57
2020/12/13 17:42:10;;;;;;;19.27;10.10;;;5.60;99.90;;;;;;5068051;28;20099;-56
2020/12/13 17:44:42;;;;;;;20.42;10.80;;;5.70;99.90;;;;;;5085687;28;20693;-58
2020/12/13 17:47:08;;;;;;;22.15;10.80;;;5.70;99.90;;;;;;5086526;28;20074;-61
2020/12/13 17:49:37;;;;;;;26.65;12.07;;;5.80;99.90;;;;;;5085869;28;20080;-59
2020/12/13 17:54:48;;;;;;;25.50;11.13;;;6.00;99.90;;;;;;5087071;28;20024;-60
2020/12/13 17:57:18;;;;;;;21.05;9.88;;;6.20;99.90;;;;;;5068165;28;20040;-59
2020/12/13 17:59:47;;;;;;;22.33;10.93;;;6.20;99.90;;;;;;5086046;28;20562;-62
2020/12/13 18:02:12;;;;;;;23.23;11.45;;;6.30;99.90;;;;;;5068753;28;20036;-58
2020/12/13 18:04:38;;;;;;;27.40;11.50;;;6.30;99.90;;;;;;5068341;28;20591;-58
2020/12/13 18:07:08;;;;;;;21.55;9.80;;;6.30;99.90;;;;;;5086772;28;20067;-60
2020/12/13 18:09:38;;;;;;;21.13;9.65;;;6.40;99.90;;;;;;5086665;28;20016;-56
2020/12/13 18:12:06;;;;;;;22.85;9.85;;;6.30;99.90;;;;;;5089126;28;20058;-60
2020/12/13 18:14:33;;;;;;;;;;;6.40;99.90;;;;;;5072160;28;20402;-56
2020/12/13 18:16:59;;;;;;;19.92;9.55;;;6.30;99.90;;;;;;5071931;28;19908;-59
2020/12/13 18:19:25;;;;;;;21.33;10.18;;;6.40;99.90;;;;;;5089032;28;20035;-59
2020/12/13 18:21:52;;;;;;;20.67;9.63;;;6.40;99.90;;;;;;5089473;28;20031;-59
2020/12/13 18:24:18;;;;;;;19.80;9.82;;;6.40;99.90;;;;;;5089448;28;20023;-63
2020/12/13 18:26:44;;;;;;;21.02;9.65;;;6.40;99.90;;;;;;5089630;28;20024;-61
2020/12/13 18:29:10;;;;;;;19.98;9.23;;;6.40;99.90;;;;;;5091497;28;20583;-57
2020/12/13 18:31:36;;;;;;;22.90;10.00;;;6.40;99.90;;;;;;5075126;28;20032;-57
2020/12/13 18:34:03;;;;;;;22.85;10.65;;;6.40;99.90;;;;;;5093427;28;20043;-59
2020/12/13 18:36:29;;;;;;;21.50;9.98;;;6.30;99.90;;;;;;5075037;28;20055;-57
2020/12/13 18:38:56;;;;;;;22.83;11.80;;;6.30;99.90;;;;;;5091286;28;20119;-59
2020/12/13 18:41:22;;;;;;;29.30;16.58;;;6.30;99.90;;;;;;5092730;28;20078;-58
2020/12/13 18:43:48;;;;;;;21.50;10.02;;;6.30;99.90;;;;;;5075072;28;20028;-59
2020/12/13 18:46:14;;;;;;;24.05;12.88;;;6.30;99.90;;;;;;5093005;28;20030;-59
2020/12/13 18:48:41;;;;;;;21.33;10.48;;;6.30;99.90;;;;;;5091968;28;20024;-59
2020/12/13 18:51:08;;;;;;;21.83;9.98;;;6.40;99.90;;;;;;5092831;28;20433;-59
2020/12/13 18:53:35;;;;;;;20.55;10.75;;;6.40;99.90;;;;;;5092615;28;20467;-59
2020/12/13 18:56:01;;;;;;;23.67;11.93;;;6.30;99.90;;;;;;5092617;28;20109;-59
2020/12/13 18:58:27;;;;;;;25.73;13.48;;;6.30;99.90;;;;;;5092179;28;20479;-59
2020/12/13 19:00:52;;;;;;;22.77;12.85;;;6.20;99.90;;;;;;5092522;28;20085;-62
2020/12/13 19:05:45;;;;;;;23.40;10.15;;;6.30;99.90;;;;;;5089171;28;20463;-59
2020/12/13 19:08:15;;;;;;;22.63;11.73;;;6.40;99.90;;;;;;5092209;28;20508;-61
2020/12/13 19:10:42;;;;;;;20.98;9.38;;;6.40;99.90;;;;;;5091977;28;20051;-59
2020/12/13 19:13:07;;;;;;;23.38;9.80;;;6.30;99.90;;;;;;5092273;28;20059;-57
2020/12/13 19:15:33;;;;;;;17.90;8.52;;;6.40;99.90;;;;;;5085140;28;20475;-59
2020/12/13 19:17:59;;;;;;;20.60;8.20;;;6.40;99.90;;;;;;5085154;28;20032;-57
2020/12/13 19:20:25;;;;;;;17.60;7.68;;;6.40;99.90;;;;;;5063922;28;20033;-59
2020/12/13 19:22:50;;;;;;;20.30;9.18;;;6.40;99.90;;;;;;5084974;28;20070;-56
2020/12/13 19:25:16;;;;;;;18.88;7.45;;;6.50;99.90;;;;;;5084286;28;20153;-58
2020/12/13 19:27:42;;;;;;;16.85;7.95;;;6.50;99.90;;;;;;5063839;28;20031;-58
2020/12/13 19:30:09;;;;;;;18.90;7.70;;;6.50;99.90;;;;;;5080822;28;20023;-56
2020/12/13 19:32:35;;;;;;;17.92;7.90;;;6.50;99.90;;;;;;5062779;28;20028;-58
2020/12/13 19:35:06;;;;;;;17.95;8.18;;;6.50;99.90;;;;;;5081316;28;20024;-57
2020/12/13 19:37:33;;;;;;;17.92;7.80;;;6.50;99.90;;;;;;5084000;28;20119;-57
2020/12/13 19:39:58;;;;;;;18.75;7.88;;;6.50;99.90;;;;;;5082028;28;20085;-57
2020/12/13 19:42:25;;;;;;;17.73;7.20;;;6.50;99.90;;;;;;5064593;28;20028;-60
2020/12/13 19:44:51;;;;;;;19.65;7.75;;;6.40;99.90;;;;;;5081564;28;20013;-60
2020/12/13 19:47:17;;;;;;;18.17;7.47;;;6.40;99.90;;;;;;5082724;28;20020;-58
2020/12/13 19:49:43;;;;;;;17.02;7.72;;;6.40;99.90;;;;;;5079543;28;20379;-59
2020/12/13 19:52:10;;;;;;;16.27;7.43;;;6.40;99.90;;;;;;5067650;28;20142;-60
2020/12/13 19:54:36;;;;;;;17.20;7.70;;;6.40;99.90;;;;;;5081251;28;20039;-58
2020/12/13 19:57:14;;;;;;;16.92;7.72;;;6.40;99.90;;;;;;5082704;28;20035;-58
2020/12/13 19:59:45;;;;;;;17.63;7.60;;;6.40;99.90;;;;;;5084165;28;20075;-58
2020/12/13 20:02:11;;;;;;;19.75;7.82;;;6.40;99.90;;;;;;5080315;28;20016;-58
2020/12/13 20:04:38;;;;;;;17.75;7.72;;;6.40;99.90;;;;;;5081379;28;20094;-57
2020/12/13 20:07:04;;;;;;;18.75;7.50;;;6.40;99.90;;;;;;5063677;28;20032;-61
2020/12/13 20:09:31;;;;;;;17.70;7.75;;;6.40;99.90;;;;;;5082913;28;20033;-60
2020/12/13 20:11:57;;;;;;;18.38;7.50;;;6.40;99.90;;;;;;5063204;28;20024;-61
2020/12/13 20:23:07;;;;;;;17.83;8.05;;;6.30;99.90;;;;;;5058260;28;20522;-60
2020/12/13 21:18:59;;;;;;;16.63;7.13;;;6.40;99.90;;;;;;5067788;28;20016;-66
2020/12/13 21:21:37;;;;;;;17.73;6.80;;;6.30;99.90;;;;;;5067262;28;20107;-63
2020/12/13 21:25:02;;;;;;;19.48;7.75;;;6.30;99.90;;;;;;5060717;28;20024;-65
2020/12/13 21:27:09;;;;;;;15.02;6.13;;;6.30;99.90;;;;;;5086464;28;20106;-65
2020/12/13 21:35:44;;;;;;;16.80;6.68;;;6.30;99.90;;;;;;5087636;28;20084;-65
2020/12/13 21:37:40;;;;;;;16.00;6.78;;;6.40;99.90;;;;;;5086679;28;20040;-65
2020/12/13 21:45:34;;;;;;;16.70;6.95;;;6.30;99.90;;;;;;5072179;28;20035;-65
2020/12/13 21:48:14;;;;;;;16.25;7.30;;;6.30;99.90;;;;;;5067363;28;20024;-65
2020/12/13 21:53:24;;;;;;;16.15;7.30;;;6.20;99.90;;;;;;5088131;28;20113;-65
2020/12/13 21:58:18;;;;;;;17.80;7.35;;;6.20;99.90;;;;;;5088295;28;20046;-62
2020/12/13 22:24:23;;;;;;;18.20;6.90;;;6.00;99.90;;;;;;5072269;28;20487;-66
2020/12/13 22:28:11;;;;;;;17.08;6.85;;;6.00;99.90;;;;;;5091127;28;20127;-66
2020/12/13 22:30:38;;;;;;;17.13;7.00;;;6.00;99.90;;;;;;5090490;28;20027;-64
2020/12/13 22:33:05;;;;;;;17.50;6.75;;;6.00;99.90;;;;;;5090440;28;20043;-65
2020/12/13 22:35:31;;;;;;;16.17;6.72;;;6.10;99.90;;;;;;5090636;28;20035;-62
2020/12/13 22:37:58;;;;;;;17.83;7.20;;;6.10;99.90;;;;;;5090623;28;20782;-64
2020/12/13 22:40:24;;;;;;;18.40;6.90;;;6.10;99.90;;;;;;5090433;28;20036;-64
2020/12/13 22:42:50;;;;;;;17.60;6.97;;;6.10;99.90;;;;;;5090649;28;20450;-64
2020/12/13 22:45:16;;;;;;;16.02;6.50;;;6.10;99.90;;;;;;5071777;28;20021;-65
2020/12/13 22:47:42;;;;;;;18.90;6.55;;;6.10;99.90;;;;;;5072192;28;20074;-65
2020/12/13 22:50:08;;;;;;;19.08;7.00;;;6.10;99.90;;;;;;5090260;28;20526;-66
2020/12/13 22:52:34;;;;;;;16.80;7.20;;;6.10;99.90;;;;;;5090274;28;20039;-64
2020/12/13 22:55:00;;;;;;;18.45;6.78;;;6.10;99.90;;;;;;5089550;28;20532;-65
2020/12/13 22:57:25;;;;;;;17.38;7.60;;;6.10;99.90;;;;;;5084988;28;20042;-65
2020/12/13 22:59:51;;;;;;;15.98;6.90;;;6.10;99.90;;;;;;5070536;28;20039;-65
2020/12/13 23:02:18;;;;;;;16.65;6.68;;;6.10;99.90;;;;;;5071822;28;20024;-64
2020/12/13 23:04:44;;;;;;;19.42;7.80;;;6.00;99.90;;;;;;5090064;28;20099;-63
2020/12/13 23:07:14;;;;;;;18.13;7.53;;;6.00;99.90;;;;;;5090447;28;20042;-65
2020/12/13 23:09:41;;;;;;;16.33;7.13;;;6.00;99.90;;;;;;5089910;28;20016;-64
2020/12/13 23:12:07;;;;;;;16.77;7.70;;;5.90;99.90;;;;;;5090080;28;20054;-66
2020/12/13 23:14:34;;;;;;;15.85;7.00;;;6.00;99.90;;;;;;5089479;28;20483;-65
2020/12/13 23:17:01;;;;;;;14.45;6.60;;;5.90;99.90;;;;;;5084045;28;20466;-65
2020/12/13 23:19:26;;;;;;;19.45;7.07;;;5.90;99.90;;;;;;5060477;28;20047;-66
2020/12/13 23:21:52;;;;;;;15.05;6.93;;;6.00;99.90;;;;;;5062053;28;20472;-65
2020/12/13 23:24:18;;;;;;;17.60;7.32;;;6.00;99.90;;;;;;5080112;28;20027;-64
2020/12/13 23:26:44;;;;;;;17.95;7.00;;;6.00;99.90;;;;;;5077542;28;20040;-64
2020/12/13 23:29:09;;;;;;;16.70;7.35;;;6.00;99.90;;;;;;5064427;28;20024;-65
2020/12/13 23:31:35;;;;;;;19.65;8.52;;;6.10;99.90;;;;;;5081845;28;20138;-60
2020/12/13 23:34:01;;;;;;;19.48;8.02;;;6.00;99.90;;;;;;5065043;28;20034;-60
2020/12/13 23:36:27;;;;;;;15.43;6.65;;;6.00;99.90;;;;;;5068717;28;20506;-62
2020/12/13 23:38:53;;;;;;;16.25;6.78;;;6.00;99.90;;;;;;5080734;28;20047;-65
2020/12/13 23:41:19;;;;;;;15.98;7.03;;;6.00;99.90;;;;;;5085185;28;20495;-62
2020/12/13 23:43:45;;;;;;;18.45;7.40;;;6.00;99.90;;;;;;5084139;28;20046;-61
2020/12/13 23:46:10;;;;;;;16.00;7.10;;;5.90;99.90;;;;;;5085440;28;20147;-65
2020/12/13 23:48:36;;;;;;;17.60;7.35;;;5.80;99.90;;;;;;5069707;28;20034;-65
2020/12/13 23:51:02;;;;;;;15.40;7.15;;;5.70;99.90;;;;;;5087438;28;20024;-65
2020/12/13 23:53:27;;;;;;;15.50;6.88;;;5.60;99.90;;;;;;5067931;28;20123;-63
2020/12/13 23:55:53;;;;;;;21.17;7.07;;;5.60;99.90;;;;;;5088171;28;20028;-65
2020/12/13 23:58:18;;;;;;;15.73;6.50;;;5.50;99.90;;;;;;5088204;28;20062;-61
